FYWH/WDH METAR and TAF weather

Enter ICAO airport designator
Station Type Date Time Source
FYWH METAR 2019/04/19 22:00 UTC NOAA

FYWH 192200Z 16008KT 9999 -RA FEW050CB SCT090 16/15 Q1026 RERA NOSIG


Station Type Date Time Source
FYWH Decoded METAR 2019/04/19 22:00 UTC NOAA

J. G. Strijdom, Namibia (FYWH) 22-29S 017-28E 1700M
Apr 19, 2019 - 06:00 PM EDT / 2019.04.19 2200 UTC
Wind: from the SSE (160 degrees) at 9 MPH (8 KT):0
Visibility: greater than 7 mile(s):0
Sky conditions: partly cloudy
Weather: light rain; Cumulonimbus clouds observed
Temperature: 60 F (16 C)
Dew Point: 59 F (15 C)
Relative Humidity: 93%
Pressure (altimeter): 30.30 in. Hg (1026 hPa)
ob: FYWH 192200Z 16008KT 9999 -RA FEW050CB SCT090 16/15 Q1026 RERA NOSIG
cycle: 22

Station Type Date Time Source
FYWH TAF 2019/04/19 18:06 UTC NOAA

TAF FYWH 191600Z 1918/2018 33010KT 9999 -TSRA FEW045CB
BECMG 1920/1922 26007KT NSW NSC
BECMG 2009/2011 04007KT SCT045

Example: see airport list